Time;durP1;ratioP1;P1;durP2;ratioP2;P2;SDS_P1;SDS_P2;PMS_P1;PMS_P2;Temp;Humidity;BMP_temperature;BMP_pressure;BME280_temperature;BME280_humidity;BME280_pressure;Samples;Min_cycle;Max_cycle;Signal;HPM_P1;HPM_P2
2023/05/22 00:02:01;;;;;;;11.57;7.55;;;18.40;99.90;;;;;;5065351;28;20049;-83
2023/05/22 00:04:28;;;;;;;10.35;6.78;;;18.50;99.90;;;;;;5053693;28;20036;-82
2023/05/22 00:06:55;;;;;;;11.40;7.10;;;18.50;99.90;;;;;;5086502;28;20039;-84
2023/05/22 00:09:20;;;;;;;10.65;7.22;;;18.60;99.90;;;;;;5058220;28;20017;-82
2023/05/22 00:11:46;;;;;;;9.13;7.00;;;18.60;99.90;;;;;;5073848;28;20046;-83
2023/05/22 00:14:12;;;;;;;12.70;8.15;;;18.60;99.90;;;;;;5064638;28;20082;-82
2023/05/22 00:16:38;;;;;;;14.13;8.45;;;18.60;99.90;;;;;;5073897;28;20039;-85
2023/05/22 00:19:05;;;;;;;10.85;7.55;;;18.60;99.90;;;;;;5074742;28;20091;-83
2023/05/22 00:21:33;;;;;;;14.60;7.68;;;18.60;99.90;;;;;;5074789;28;20073;-83
2023/05/22 00:24:00;;;;;;;9.15;7.07;;;18.60;99.90;;;;;;5074340;28;20028;-82
2023/05/22 00:26:26;;;;;;;11.95;7.40;;;18.60;99.90;;;;;;5074520;28;20029;-83
2023/05/22 00:28:52;;;;;;;11.93;7.30;;;18.60;99.90;;;;;;5073239;28;20027;-82
2023/05/22 00:31:17;;;;;;;10.02;7.45;;;18.60;99.90;;;;;;5073184;28;20028;-83
2023/05/22 00:33:43;;;;;;;10.73;7.40;;;18.60;99.90;;;;;;5066362;28;20421;-83
2023/05/22 00:36:08;;;;;;;10.93;7.45;;;18.40;99.90;;;;;;5064832;28;20447;-83
2023/05/22 00:38:36;;;;;;;10.82;7.22;;;18.40;99.90;;;;;;5073244;28;20476;-82
2023/05/22 00:41:03;;;;;;;11.35;7.50;;;18.40;99.90;;;;;;5071903;28;20085;-83
2023/05/22 00:43:29;;;;;;;9.38;6.70;;;18.40;99.90;;;;;;5053254;28;20033;-83
2023/05/22 00:45:54;;;;;;;10.07;6.97;;;18.40;99.90;;;;;;5061347;28;20031;-83
2023/05/22 00:48:21;;;;;;;8.95;6.45;;;18.40;99.90;;;;;;5065613;28;20116;-83
2023/05/22 00:50:48;;;;;;;9.10;6.78;;;18.40;99.90;;;;;;5052759;28;20025;-83
2023/05/22 00:53:14;;;;;;;10.45;6.72;;;18.40;99.90;;;;;;5055765;28;20028;-84
2023/05/22 00:55:40;;;;;;;10.02;6.75;;;18.40;99.90;;;;;;5074373;28;20033;-84
2023/05/22 00:58:09;;;;;;;9.10;6.45;;;18.40;99.90;;;;;;5074236;28;20362;-83
2023/05/22 01:00:36;;;;;;;9.27;6.55;;;18.40;99.90;;;;;;5074386;28;20055;-82
2023/05/22 01:03:06;;;;;;;10.20;6.40;;;18.40;99.90;;;;;;5071733;28;20031;-83
2023/05/22 01:05:33;;;;;;;10.70;7.20;;;18.40;99.90;;;;;;5054243;28;20044;-85
2023/05/22 01:07:59;;;;;;;13.65;6.70;;;18.40;99.90;;;;;;5052619;28;20078;-84
2023/05/22 01:10:25;;;;;;;11.40;7.03;;;18.40;99.90;;;;;;5053022;28;20028;-84
2023/05/22 01:13:26;;;;;;;11.10;7.10;;;18.20;99.90;;;;;;5069721;28;20039;-84
2023/05/22 01:16:01;;;;;;;11.98;7.15;;;17.90;99.90;;;;;;5057436;28;20037;-84
2023/05/22 01:18:45;;;;;;;10.25;7.10;;;17.80;99.90;;;;;;5053131;28;20021;-83
2023/05/22 01:22:00;;;;;;;11.48;7.57;;;17.70;99.90;;;;;;5054085;28;20035;-84
2023/05/22 01:24:59;;;;;;;11.27;7.45;;;17.60;99.90;;;;;;5007848;28;20044;-82
2023/05/22 01:27:33;;;;;;;13.15;7.50;;;17.50;99.90;;;;;;5052794;28;20037;-82
2023/05/22 01:30:05;;;;;;;12.25;7.22;;;17.50;99.90;;;;;;5062394;28;20028;-86
2023/05/22 01:32:35;;;;;;;10.93;7.50;;;17.40;99.90;;;;;;5060510;28;20455;-86
2023/05/22 01:35:04;;;;;;;12.50;7.60;;;17.40;99.90;;;;;;5068895;28;20083;-85
2023/05/22 01:37:30;;;;;;;10.30;7.35;;;17.50;99.90;;;;;;5052778;28;20029;-84
2023/05/22 01:39:57;;;;;;;11.77;7.07;;;17.60;99.90;;;;;;5053337;28;20033;-85
2023/05/22 01:42:22;;;;;;;11.95;7.80;;;17.60;99.90;;;;;;5066849;28;20035;-83
2023/05/22 01:44:48;;;;;;;12.40;7.72;;;17.60;99.90;;;;;;5083949;28;20032;-83
2023/05/22 01:47:14;;;;;;;11.35;7.45;;;17.50;99.90;;;;;;5093821;28;20548;-82
2023/05/22 01:49:40;;;;;;;10.05;7.00;;;17.50;99.90;;;;;;5077794;28;20458;-85
2023/05/22 01:52:11;;;;;;;11.07;7.65;;;17.40;99.90;;;;;;5076963;28;20028;-82
2023/05/22 01:55:20;;;;;;;11.82;7.28;;;17.40;99.90;;;;;;5077107;28;20039;-84
2023/05/22 01:58:01;;;;;;;11.80;8.05;;;17.40;99.90;;;;;;5072979;28;20041;-84
2023/05/22 02:00:27;;;;;;;;;;;17.40;99.90;;;;;;5077087;28;20024;-82
2023/05/22 02:03:02;;;;;;;11.20;7.38;;;17.40;99.90;;;;;;5076946;28;19904;-83
2023/05/22 02:05:31;;;;;;;12.13;8.18;;;17.30;99.90;;;;;;5077836;28;20052;-83
2023/05/22 02:08:00;;;;;;;12.57;7.70;;;17.20;99.90;;;;;;5077390;28;20020;-83
2023/05/22 02:10:28;;;;;;;14.57;7.18;;;17.20;99.90;;;;;;5076500;28;20056;-83
2023/05/22 02:12:54;;;;;;;9.45;6.85;;;17.10;99.90;;;;;;5077062;28;20028;-82
2023/05/22 02:15:20;;;;;;;10.93;7.10;;;17.00;99.90;;;;;;5076573;28;20033;-83
2023/05/22 02:17:48;;;;;;;11.93;7.75;;;17.10;99.90;;;;;;5076005;28;20024;-84
2023/05/22 02:20:14;;;;;;;10.70;7.25;;;17.20;99.90;;;;;;5077139;28;20021;-83
2023/05/22 02:22:45;;;;;;;11.98;7.18;;;17.20;99.90;;;;;;5076124;28;20076;-85
2023/05/22 02:25:15;;;;;;;11.23;7.65;;;17.30;99.90;;;;;;5076469;28;20058;-83
2023/05/22 02:27:46;;;;;;;11.15;7.43;;;17.30;99.90;;;;;;5076369;28;20084;-87
2023/05/22 02:30:12;;;;;;;15.10;7.32;;;17.30;99.90;;;;;;5076177;28;20025;-83
2023/05/22 02:32:39;;;;;;;10.82;7.35;;;17.30;99.90;;;;;;5077148;28;20029;-83
2023/05/22 02:35:05;;;;;;;11.90;7.88;;;17.40;99.90;;;;;;5092140;28;20052;-83
2023/05/22 02:37:31;;;;;;;10.73;7.30;;;17.40;99.90;;;;;;5077164;28;20028;-83
2023/05/22 02:39:57;;;;;;;13.45;8.63;;;17.40;99.90;;;;;;5091678;28;20020;-83
2023/05/22 02:42:22;;;;;;;13.27;8.32;;;17.40;99.90;;;;;;5076447;28;20059;-83
2023/05/22 02:44:48;;;;;;;12.98;8.07;;;17.40;99.90;;;;;;5075217;28;20420;-83
2023/05/22 02:47:14;;;;;;;14.18;8.13;;;17.30;99.90;;;;;;5076783;28;20032;-83
2023/05/22 02:49:39;;;;;;;11.55;7.78;;;17.30;99.90;;;;;;5075557;28;20017;-82
2023/05/22 02:52:05;;;;;;;15.07;8.32;;;17.40;99.90;;;;;;5077823;28;20789;-83
2023/05/22 02:54:31;;;;;;;11.68;7.18;;;17.40;99.90;;;;;;5079014;28;20040;-84
2023/05/22 02:56:56;;;;;;;13.30;8.00;;;17.40;99.90;;;;;;5077567;28;20111;-84
2023/05/22 02:59:22;;;;;;;11.45;8.07;;;17.40;99.90;;;;;;5077325;28;20036;-84
2023/05/22 03:01:48;;;;;;;13.25;7.93;;;17.30;99.90;;;;;;5076644;28;20084;-85
2023/05/22 03:04:13;;;;;;;11.95;7.90;;;17.20;99.90;;;;;;5079106;28;20028;-84
2023/05/22 03:06:40;;;;;;;13.85;8.45;;;17.20;99.90;;;;;;5077466;28;20051;-82
2023/05/22 03:09:07;;;;;;;10.35;7.47;;;17.20;99.90;;;;;;5078341;28;20017;-84
2023/05/22 03:11:33;;;;;;;10.82;7.63;;;17.20;99.90;;;;;;5076789;28;20024;-84
2023/05/22 03:13:58;;;;;;;12.55;8.15;;;17.20;99.90;;;;;;5074563;28;20035;-85
2023/05/22 03:16:25;;;;;;;12.98;8.48;;;17.20;99.90;;;;;;5077082;28;20044;-84
2023/05/22 03:19:05;;;;;;;13.68;8.70;;;17.20;99.90;;;;;;5078732;28;20024;-84
2023/05/22 03:21:31;;;;;;;14.13;8.70;;;17.20;99.90;;;;;;5078575;28;20058;-84
2023/05/22 03:23:56;;;;;;;11.80;7.97;;;17.20;99.90;;;;;;5075705;28;20044;-85
2023/05/22 03:26:22;;;;;;;12.88;8.27;;;17.30;99.90;;;;;;5093586;28;20040;-83
2023/05/22 03:28:49;;;;;;;11.82;8.38;;;17.20;99.90;;;;;;5076202;28;20032;-87
2023/05/22 03:31:15;;;;;;;12.60;8.07;;;17.30;99.90;;;;;;5077134;28;20036;-84
2023/05/22 03:33:40;;;;;;;15.10;8.27;;;17.30;99.90;;;;;;5075952;28;20028;-83
2023/05/22 03:36:06;;;;;;;15.40;8.50;;;17.20;99.90;;;;;;5092387;28;20461;-83
2023/05/22 03:38:32;;;;;;;11.93;8.55;;;17.20;99.90;;;;;;5076193;28;20048;-84
2023/05/22 03:40:57;;;;;;;11.63;8.25;;;17.20;99.90;;;;;;5075847;28;20028;-81
2023/05/22 03:43:23;;;;;;;12.38;7.85;;;17.20;99.90;;;;;;5075749;28;20036;-83
2023/05/22 03:45:48;;;;;;;11.98;8.20;;;17.20;99.90;;;;;;5092035;28;20481;-87
2023/05/22 03:48:14;;;;;;;20.50;9.07;;;17.20;99.90;;;;;;5077341;28;20062;-83
2023/05/22 03:50:40;;;;;;;13.85;8.60;;;17.20;99.90;;;;;;5094324;28;20020;-83
2023/05/22 03:53:05;;;;;;;13.77;8.45;;;17.20;99.90;;;;;;5079659;28;20041;-82
2023/05/22 03:55:31;;;;;;;15.27;8.93;;;17.20;99.90;;;;;;5078229;28;20043;-84
2023/05/22 03:57:57;;;;;;;14.27;8.95;;;17.20;99.90;;;;;;5078804;28;20063;-84
2023/05/22 04:00:22;;;;;;;14.82;8.77;;;17.20;99.90;;;;;;5079097;28;20027;-84
2023/05/22 04:02:49;;;;;;;15.10;8.82;;;17.20;99.90;;;;;;5076808;28;20040;-87
2023/05/22 04:05:15;;;;;;;13.43;8.43;;;17.20;99.90;;;;;;5074674;28;20025;-84
2023/05/22 04:07:40;;;;;;;14.07;8.65;;;17.20;99.90;;;;;;5075375;28;20025;-84
2023/05/22 04:10:06;;;;;;;11.45;8.35;;;17.30;99.90;;;;;;5054562;28;20024;-83
2023/05/22 04:12:32;;;;;;;12.35;8.07;;;17.40;99.90;;;;;;5055329;28;20032;-83
2023/05/22 04:14:58;;;;;;;14.05;9.35;;;17.30;99.90;;;;;;5054457;28;20028;-83
2023/05/22 04:17:30;;;;;;;13.85;8.48;;;17.40;99.90;;;;;;5055485;28;20064;-83
2023/05/22 04:19:57;;;;;;;12.10;8.52;;;17.30;99.90;;;;;;5054983;28;20025;-84
2023/05/22 04:22:22;;;;;;;13.82;8.90;;;17.40;99.90;;;;;;5055520;28;20021;-82
2023/05/22 04:24:48;;;;;;;12.50;8.70;;;17.40;99.90;;;;;;5055925;28;20044;-87
2023/05/22 04:27:14;;;;;;;14.10;8.43;;;17.40;99.90;;;;;;5055660;28;20074;-84
2023/05/22 04:29:40;;;;;;;16.17;8.75;;;17.40;99.90;;;;;;5055080;28;20025;-83
2023/05/22 04:32:09;;;;;;;14.63;8.35;;;17.40;99.90;;;;;;5054592;28;20029;-83
2023/05/22 04:34:38;;;;;;;12.13;8.18;;;17.40;99.90;;;;;;5053511;28;20470;-82
2023/05/22 04:37:05;;;;;;;14.13;8.18;;;17.40;99.90;;;;;;5054359;28;20029;-82
2023/05/22 04:39:30;;;;;;;12.35;7.93;;;17.40;99.90;;;;;;5054519;28;20021;-82
2023/05/22 04:41:57;;;;;;;14.35;8.88;;;17.40;99.90;;;;;;5053133;28;20083;-83
2023/05/22 04:44:22;;;;;;;14.02;8.23;;;17.50;99.90;;;;;;5053411;28;20071;-83
2023/05/22 04:46:49;;;;;;;12.13;7.85;;;17.50;99.90;;;;;;5054381;28;20052;-82
2023/05/22 04:49:14;;;;;;;10.65;7.22;;;17.50;99.90;;;;;;5053151;28;20028;-83
2023/05/22 04:51:40;;;;;;;11.45;7.63;;;17.60;99.90;;;;;;5053244;28;20028;-82
2023/05/22 04:54:06;;;;;;;12.30;7.65;;;17.60;99.90;;;;;;5053871;28;20068;-84
2023/05/22 04:56:31;;;;;;;11.95;7.15;;;17.70;99.90;;;;;;5055129;28;20041;-82
2023/05/22 04:58:57;;;;;;;11.60;6.93;;;17.70;99.90;;;;;;5054634;28;20115;-84
2023/05/22 05:01:23;;;;;;;11.88;7.35;;;17.70;99.90;;;;;;5054146;28;20052;-84
2023/05/22 05:03:49;;;;;;;10.90;6.93;;;17.80;99.90;;;;;;5054591;28;20040;-84
2023/05/22 05:06:16;;;;;;;12.00;8.15;;;17.80;99.90;;;;;;5054679;28;20033;-84
2023/05/22 05:08:43;;;;;;;12.10;7.45;;;17.90;99.90;;;;;;5055629;28;20067;-84
2023/05/22 05:11:08;;;;;;;13.48;7.55;;;17.90;99.90;;;;;;5054951;28;20036;-82
2023/05/22 05:13:34;;;;;;;15.90;7.78;;;17.90;99.90;;;;;;5055104;28;20036;-82
2023/05/22 05:16:00;;;;;;;12.43;7.85;;;17.90;99.90;;;;;;5054853;28;20029;-80
2023/05/22 05:18:26;;;;;;;14.45;7.25;;;17.90;99.90;;;;;;5053966;28;20533;-80
2023/05/22 05:20:52;;;;;;;11.50;6.97;;;17.90;99.90;;;;;;5052585;28;20025;-82
2023/05/22 05:23:18;;;;;;;11.85;7.15;;;17.90;99.90;;;;;;5053368;28;20501;-81
2023/05/22 05:25:43;;;;;;;11.77;7.10;;;17.90;99.90;;;;;;5053850;28;20061;-81
2023/05/22 05:28:10;;;;;;;14.70;7.30;;;18.00;99.90;;;;;;5052328;28;20021;-82
2023/05/22 05:30:40;;;;;;;11.02;7.10;;;18.10;99.90;;;;;;5053866;28;20138;-82
2023/05/22 05:33:06;;;;;;;12.77;8.07;;;18.10;99.90;;;;;;5052782;28;20029;-82
2023/05/22 05:35:32;;;;;;;14.38;7.95;;;18.20;99.90;;;;;;5061409;28;20102;-81
2023/05/22 05:37:57;;;;;;;11.80;7.72;;;18.20;99.90;;;;;;5072312;28;20031;-82
2023/05/22 05:40:23;;;;;;;10.77;7.40;;;18.20;99.90;;;;;;5068360;28;20029;-82
2023/05/22 05:42:49;;;;;;;12.68;7.82;;;18.20;99.90;;;;;;5072758;28;20047;-82
2023/05/22 05:45:15;;;;;;;11.85;7.63;;;18.30;99.90;;;;;;5069398;28;20579;-82
2023/05/22 05:47:41;;;;;;;13.63;7.47;;;18.30;99.90;;;;;;5054488;28;20025;-83
2023/05/22 05:50:06;;;;;;;10.85;7.10;;;18.30;99.90;;;;;;5054115;28;20025;-83
2023/05/22 05:52:32;;;;;;;13.73;7.72;;;18.40;99.90;;;;;;5058314;28;20020;-83
2023/05/22 05:54:59;;;;;;;15.20;7.22;;;18.50;99.90;;;;;;5061865;28;20065;-84
2023/05/22 05:57:26;;;;;;;11.10;6.75;;;18.50;99.90;;;;;;5052596;28;20067;-83
2023/05/22 05:59:51;;;;;;;11.90;7.75;;;18.50;99.90;;;;;;5062914;28;20077;-82
2023/05/22 06:02:17;;;;;;;13.70;7.53;;;18.50;99.90;;;;;;5072736;28;20423;-84
2023/05/22 06:04:47;;;;;;;12.98;7.13;;;18.50;99.90;;;;;;5073698;28;20025;-84
2023/05/22 06:07:14;;;;;;;10.77;7.05;;;18.50;99.90;;;;;;5072469;28;20075;-85
2023/05/22 06:09:40;;;;;;;13.20;7.25;;;18.60;99.90;;;;;;5065875;28;20029;-85
2023/05/22 06:12:06;;;;;;;10.35;7.05;;;18.60;99.90;;;;;;5068267;28;20091;-84
2023/05/22 06:14:32;;;;;;;11.98;6.97;;;18.60;99.90;;;;;;5066257;28;20039;-84
2023/05/22 06:16:57;;;;;;;11.63;7.07;;;18.60;99.90;;;;;;5074062;28;20020;-86
2023/05/22 06:19:23;;;;;;;12.20;7.88;;;18.60;99.90;;;;;;5073382;28;20021;-83
2023/05/22 06:21:48;;;;;;;11.15;7.22;;;18.70;99.90;;;;;;5074265;28;20446;-85
2023/05/22 06:24:14;;;;;;;12.80;7.20;;;18.80;99.90;;;;;;5072161;28;20053;-85
2023/05/22 06:26:40;;;;;;;12.77;6.85;;;18.80;99.90;;;;;;5068821;28;20449;-84
2023/05/22 06:29:05;;;;;;;11.98;7.57;;;18.80;99.90;;;;;;5059887;28;20021;-84
2023/05/22 06:31:34;;;;;;;13.73;7.47;;;18.80;99.90;;;;;;5072924;28;20406;-85
2023/05/22 06:34:00;;;;;;;12.68;7.10;;;18.80;99.90;;;;;;5062999;28;20025;-84
2023/05/22 06:36:25;;;;;;;15.40;7.70;;;18.90;99.90;;;;;;5070453;28;20497;-82
2023/05/22 06:38:53;;;;;;;10.95;7.35;;;18.80;99.90;;;;;;5058779;28;20025;-82
2023/05/22 06:41:20;;;;;;;12.00;7.82;;;18.90;99.90;;;;;;5061216;28;20023;-82
2023/05/22 06:43:46;;;;;;;12.75;7.78;;;18.90;99.90;;;;;;5076661;28;20082;-81
2023/05/22 06:46:11;;;;;;;15.50;8.60;;;19.00;99.90;;;;;;5075520;28;20457;-79
2023/05/22 06:48:37;;;;;;;13.77;7.90;;;19.00;99.90;;;;;;5075968;28;20036;-81
2023/05/22 06:51:03;;;;;;;12.95;8.20;;;19.00;99.90;;;;;;5069725;28;20032;-79
2023/05/22 06:53:29;;;;;;;12.88;9.23;;;19.00;99.90;;;;;;5066424;28;20040;-79
2023/05/22 06:55:55;;;;;;;15.93;8.00;;;19.00;99.90;;;;;;5067252;28;20036;-81
2023/05/22 06:58:21;;;;;;;14.40;8.40;;;19.00;99.90;;;;;;5056216;28;20025;-81
2023/05/22 07:00:46;;;;;;;15.35;8.27;;;19.00;99.90;;;;;;5060887;28;20175;-83
2023/05/22 07:03:12;;;;;;;12.98;8.02;;;19.10;99.90;;;;;;5075999;28;20253;-83
2023/05/22 07:05:37;;;;;;;12.38;7.78;;;19.10;99.90;;;;;;5075342;28;20453;-83
2023/05/22 07:08:03;;;;;;;16.67;8.80;;;19.20;99.90;;;;;;5074793;28;20025;-82
2023/05/22 07:10:29;;;;;;;14.20;8.55;;;19.20;99.90;;;;;;5075335;28;20043;-82
2023/05/22 07:12:54;;;;;;;13.75;9.13;;;19.30;99.90;;;;;;5076000;28;20358;-84
2023/05/22 07:15:20;;;;;;;12.38;8.88;;;19.30;99.90;;;;;;5074580;28;20032;-83
2023/05/22 07:17:46;;;;;;;14.20;9.07;;;19.30;99.90;;;;;;5075154;28;20024;-80
2023/05/22 07:20:14;;;;;;;15.32;8.60;;;19.30;99.90;;;;;;5059120;28;20056;-79
2023/05/22 07:22:40;;;;;;;11.45;8.32;;;19.30;99.90;;;;;;5063967;28;20534;-79
2023/05/22 07:25:06;;;;;;;12.02;8.60;;;19.30;99.90;;;;;;5072775;28;20036;-83
2023/05/22 07:27:42;;;;;;;12.25;8.88;;;19.40;99.90;;;;;;5069141;28;20021;-81
2023/05/22 07:30:08;;;;;;;13.52;8.25;;;19.40;99.90;;;;;;5038199;28;20036;-79
2023/05/22 07:32:34;;;;;;;14.20;8.25;;;19.50;99.90;;;;;;5053215;28;20037;-79
2023/05/22 07:35:00;;;;;;;11.15;8.38;;;19.50;99.90;;;;;;5052164;28;20041;-80
2023/05/22 07:37:25;;;;;;;11.40;7.88;;;19.50;99.90;;;;;;5052944;28;20028;-79
2023/05/22 07:39:51;;;;;;;12.98;8.70;;;19.60;99.90;;;;;;5047968;28;20126;-79
2023/05/22 07:42:16;;;;;;;12.95;8.93;;;19.60;99.90;;;;;;5043785;28;20111;-80
2023/05/22 07:44:42;;;;;;;14.70;7.82;;;19.70;99.90;;;;;;5050520;28;20041;-79
2023/05/22 07:47:08;;;;;;;14.98;8.23;;;19.80;99.90;;;;;;5032097;28;20021;-78
2023/05/22 07:49:33;;;;;;;12.32;8.07;;;19.90;99.90;;;;;;5037540;28;20037;-79
2023/05/22 07:51:59;;;;;;;14.02;7.78;;;20.00;99.90;;;;;;5023924;28;20028;-81
2023/05/22 07:54:25;;;;;;;12.95;7.78;;;20.00;99.90;;;;;;5057481;28;20110;-78
2023/05/22 07:56:51;;;;;;;12.18;8.07;;;20.10;99.90;;;;;;5036256;28;20426;-80
2023/05/22 07:59:18;;;;;;;12.68;8.15;;;20.10;99.90;;;;;;5052300;28;20724;-80
2023/05/22 08:01:44;;;;;;;12.00;8.05;;;20.20;99.90;;;;;;5068731;28;20071;-80
2023/05/22 08:04:09;;;;;;;11.85;7.70;;;20.30;99.90;;;;;;5062143;28;20029;-80
2023/05/22 08:06:35;;;;;;;12.13;7.68;;;20.30;99.90;;;;;;5070503;28;20039;-79
2023/05/22 08:09:01;;;;;;;11.80;7.57;;;20.40;99.90;;;;;;5071906;28;20071;-78
2023/05/22 08:11:27;;;;;;;11.57;7.18;;;20.50;99.90;;;;;;5053395;28;20045;-78
2023/05/22 08:13:53;;;;;;;11.63;8.15;;;20.50;99.90;;;;;;5056616;28;20037;-81
2023/05/22 08:16:19;;;;;;;12.02;7.60;;;20.60;99.90;;;;;;5067380;28;20020;-80
2023/05/22 08:18:44;;;;;;;12.98;7.70;;;20.80;99.90;;;;;;5090830;28;20024;-82
2023/05/22 08:21:10;;;;;;;15.40;7.97;;;20.80;99.90;;;;;;5089979;28;20389;-82
2023/05/22 08:23:42;;;;;;;10.23;7.35;;;20.90;99.90;;;;;;5090743;28;20119;-81
2023/05/22 08:26:08;;;;;;;11.10;7.22;;;21.00;99.90;;;;;;5073409;28;20047;-82
2023/05/22 08:28:34;;;;;;;15.93;8.10;;;21.10;99.90;;;;;;5059727;28;20029;-82
2023/05/22 08:31:01;;;;;;;15.15;9.23;;;21.10;99.90;;;;;;5053281;28;20120;-83
2023/05/22 08:33:27;;;;;;;12.07;8.88;;;21.20;99.90;;;;;;5053743;28;20033;-81
2023/05/22 08:35:52;;;;;;;14.85;9.40;;;21.20;99.90;;;;;;5054407;28;20025;-81
2023/05/22 08:38:18;;;;;;;13.43;9.27;;;21.20;99.90;;;;;;5053859;28;20635;-82
2023/05/22 08:40:48;;;;;;;12.80;8.93;;;21.20;99.90;;;;;;5053455;28;20048;-81
2023/05/22 08:43:14;;;;;;;13.80;8.98;;;21.20;99.90;;;;;;5053263;28;20028;-82
2023/05/22 08:45:41;;;;;;;13.35;8.32;;;21.20;99.90;;;;;;5053214;28;20025;-81
2023/05/22 08:48:11;;;;;;;13.32;8.32;;;21.20;99.90;;;;;;5053060;28;20029;-82
2023/05/22 08:50:41;;;;;;;16.88;8.95;;;21.30;99.90;;;;;;5054196;28;20086;-81
2023/05/22 08:53:09;;;;;;;14.20;9.95;;;21.40;99.90;;;;;;5052678;28;20035;-81
2023/05/22 08:55:36;;;;;;;13.90;8.90;;;21.40;99.90;;;;;;5058927;28;20119;-82
2023/05/22 08:58:03;;;;;;;14.25;9.00;;;21.40;99.90;;;;;;5064124;28;20037;-83
2023/05/22 09:00:29;;;;;;;14.70;9.32;;;21.50;99.90;;;;;;5057512;28;20094;-82
2023/05/22 09:02:55;;;;;;;16.52;10.15;;;21.50;99.90;;;;;;5056910;28;20088;-85
2023/05/22 09:05:25;;;;;;;13.77;9.15;;;21.50;99.90;;;;;;5056835;28;20116;-82
2023/05/22 09:07:56;;;;;;;14.40;9.65;;;21.60;99.90;;;;;;5067585;28;20025;-83
2023/05/22 09:10:22;;;;;;;16.30;9.75;;;21.70;99.90;;;;;;5066540;28;20036;-82
2023/05/22 09:13:03;;;;;;;14.60;9.55;;;21.90;99.90;;;;;;5074831;28;20028;-81
2023/05/22 09:15:31;;;;;;;14.48;9.63;;;22.10;99.90;;;;;;5056901;28;20201;-82
2023/05/22 09:17:58;;;;;;;14.35;9.38;;;22.10;99.90;;;;;;5072946;28;20050;-86
2023/05/22 09:20:24;;;;;;;17.02;10.20;;;22.20;99.90;;;;;;5061921;28;20028;-84
2023/05/22 09:22:49;;;;;;;14.80;9.23;;;22.30;99.90;;;;;;5070188;28;20025;-85
2023/05/22 09:25:20;;;;;;;20.75;9.75;;;22.30;99.90;;;;;;5070752;28;20033;-85
2023/05/22 09:27:47;;;;;;;12.63;9.15;;;22.30;99.90;;;;;;5063907;28;20032;-85
2023/05/22 09:30:16;;;;;;;11.65;8.55;;;22.40;99.90;;;;;;5063401;28;20056;-85
2023/05/22 09:32:43;;;;;;;13.00;8.98;;;22.50;99.90;;;;;;5073005;28;20027;-84
2023/05/22 09:35:08;;;;;;;13.75;8.48;;;22.60;99.90;;;;;;5073012;28;20033;-84
2023/05/22 09:37:35;;;;;;;14.63;8.93;;;22.60;99.90;;;;;;5068185;28;20146;-84
2023/05/22 09:40:10;;;;;;;14.48;9.35;;;22.60;99.90;;;;;;5053912;28;20032;-82
2023/05/22 09:42:36;;;;;;;15.43;9.18;;;22.60;99.90;;;;;;5068450;28;20025;-84
2023/05/22 09:45:06;;;;;;;14.00;9.35;;;22.60;99.90;;;;;;5057388;28;20089;-85
2023/05/22 09:47:35;;;;;;;12.77;9.32;;;22.60;99.90;;;;;;5075485;28;20045;-83
2023/05/22 09:50:06;;;;;;;14.60;9.57;;;22.60;99.90;;;;;;5063459;28;20048;-85
2023/05/22 09:52:34;;;;;;;17.63;9.93;;;22.60;99.90;;;;;;5068587;28;20106;-84
2023/05/22 09:55:03;;;;;;;17.45;10.55;;;22.50;99.90;;;;;;5059242;28;20056;-84
2023/05/22 09:57:32;;;;;;;13.85;9.13;;;22.50;99.90;;;;;;5061644;28;20841;-83
2023/05/22 09:59:59;;;;;;;12.15;8.70;;;22.40;99.90;;;;;;5063300;28;20094;-84
2023/05/22 10:02:26;;;;;;;15.40;9.32;;;22.40;99.90;;;;;;5067609;28;20063;-84
2023/05/22 10:04:53;;;;;;;17.15;10.27;;;22.40;99.90;;;;;;5077429;28;20029;-86
2023/05/22 10:07:23;;;;;;;15.32;9.88;;;22.40;99.90;;;;;;5074435;28;20029;-84
2023/05/22 10:10:02;;;;;;;15.30;9.35;;;22.40;99.90;;;;;;5078713;28;20044;-84
2023/05/22 10:12:32;;;;;;;15.88;9.70;;;22.40;99.90;;;;;;5063311;28;20040;-84
2023/05/22 10:14:59;;;;;;;13.80;9.40;;;22.40;99.90;;;;;;5058567;28;20048;-85
2023/05/22 10:17:25;;;;;;;13.45;9.85;;;22.50;99.90;;;;;;5073017;28;20513;-84
2023/05/22 10:19:52;;;;;;;17.05;9.90;;;22.50;99.90;;;;;;5069047;28;20104;-84
2023/05/22 10:22:21;;;;;;;13.48;9.68;;;22.60;99.90;;;;;;5066390;28;20033;-82
2023/05/22 10:24:47;;;;;;;16.00;10.30;;;22.70;99.90;;;;;;5071673;28;20127;-84
2023/05/22 10:27:13;;;;;;;14.10;9.55;;;22.70;99.90;;;;;;5060454;28;20028;-84
2023/05/22 10:30:08;;;;;;;12.65;9.25;;;22.80;99.90;;;;;;5072396;28;20388;-89
2023/05/22 10:32:45;;;;;;;14.48;9.45;;;22.90;99.90;;;;;;5046492;28;20091;-87
2023/05/22 10:35:19;;;;;;;13.13;9.38;;;23.00;99.90;;;;;;5072596;28;20029;-87
2023/05/22 10:37:50;;;;;;;13.85;10.10;;;23.00;99.90;;;;;;5065686;28;20090;-84
2023/05/22 10:40:35;;;;;;;13.68;9.63;;;23.00;99.90;;;;;;5067003;28;20087;-84
2023/05/22 10:43:02;;;;;;;11.60;8.85;;;23.00;99.90;;;;;;5071479;28;20040;-83
2023/05/22 10:45:29;;;;;;;14.93;9.48;;;23.00;99.90;;;;;;5055826;28;20082;-83
2023/05/22 10:48:04;;;;;;;11.43;8.80;;;23.10;99.90;;;;;;5055414;28;20029;-83
2023/05/22 10:50:30;;;;;;;14.55;9.90;;;23.10;99.90;;;;;;5085796;28;20101;-84
2023/05/22 10:53:19;;;;;;;16.63;9.82;;;23.20;99.90;;;;;;5058926;28;20033;-88
2023/05/22 10:55:53;;;;;;;13.40;9.10;;;23.10;99.90;;;;;;5075261;28;20044;-83
2023/05/22 10:58:29;;;;;;;13.93;9.40;;;23.20;99.90;;;;;;5062797;28;20036;-83
2023/05/22 11:01:16;;;;;;;11.43;9.15;;;23.30;99.90;;;;;;5056109;28;20048;-84
2023/05/22 11:03:55;;;;;;;10.98;8.18;;;23.40;99.90;;;;;;5055836;28;20058;-84
2023/05/22 11:06:49;;;;;;;19.05;9.93;;;23.40;99.90;;;;;;5075001;28;20465;-83
2023/05/22 11:09:28;;;;;;;12.43;9.25;;;23.50;99.90;;;;;;5072196;28;20449;-83
2023/05/22 11:12:15;;;;;;;13.98;8.80;;;23.50;99.90;;;;;;5049011;28;20032;-87
2023/05/22 11:14:48;;;;;;;14.45;9.48;;;23.60;99.90;;;;;;5068497;28;20028;-84
2023/05/22 11:17:18;;;;;;;15.38;9.52;;;23.60;99.90;;;;;;5075827;28;20028;-83
2023/05/22 11:19:55;;;;;;;15.00;9.73;;;23.60;99.90;;;;;;5049827;28;20033;-84
2023/05/22 11:22:21;;;;;;;14.00;9.45;;;23.80;99.90;;;;;;5056769;28;20056;-83
2023/05/22 11:24:47;;;;;;;17.58;9.27;;;23.80;99.90;;;;;;5068887;28;20090;-84
2023/05/22 11:27:12;;;;;;;14.93;9.63;;;23.80;99.90;;;;;;5065266;28;20048;-82
2023/05/22 11:29:43;;;;;;;14.00;9.63;;;23.90;99.90;;;;;;5074870;28;20024;-84
2023/05/22 11:32:14;;;;;;;12.98;8.98;;;24.00;99.90;;;;;;5065397;28;20021;-84
2023/05/22 11:34:39;;;;;;;13.88;9.63;;;24.00;99.90;;;;;;5063195;28;20094;-84
2023/05/22 11:37:05;;;;;;;11.13;8.80;;;24.00;99.90;;;;;;5065337;28;20033;-85
2023/05/22 11:39:31;;;;;;;11.43;8.50;;;24.10;99.90;;;;;;5062410;28;20078;-84
2023/05/22 11:41:57;;;;;;;11.13;7.40;;;24.10;99.90;;;;;;5062449;28;20031;-86
2023/05/22 11:44:25;;;;;;;12.75;6.82;;;24.20;99.90;;;;;;5074627;28;20119;-85
2023/05/22 11:46:51;;;;;;;15.13;7.43;;;24.20;99.90;;;;;;5074530;28;20031;-83
2023/05/22 11:49:16;;;;;;;10.88;7.63;;;24.30;99.90;;;;;;5073689;28;20024;-84
2023/05/22 11:51:42;;;;;;;10.55;7.15;;;24.30;99.90;;;;;;5074050;28;20057;-83
2023/05/22 11:54:09;;;;;;;8.95;7.13;;;24.40;99.90;;;;;;5073608;28;20028;-83
2023/05/22 11:56:35;;;;;;;9.85;7.13;;;24.50;99.90;;;;;;5071214;28;20497;-84
2023/05/22 11:59:00;;;;;;;11.02;7.78;;;24.50;99.90;;;;;;5055246;28;20029;-87
2023/05/22 12:01:26;;;;;;;12.48;7.93;;;24.60;99.90;;;;;;5057626;28;20045;-83
2023/05/22 12:03:51;;;;;;;11.30;8.25;;;24.60;99.90;;;;;;5062028;28;20028;-87
2023/05/22 12:06:17;;;;;;;13.10;8.43;;;24.80;99.90;;;;;;5071911;28;20106;-84
2023/05/22 12:08:43;;;;;;;11.60;8.55;;;24.90;99.90;;;;;;5059500;28;20032;-84
2023/05/22 12:11:10;;;;;;;12.20;8.10;;;24.90;99.90;;;;;;5072681;28;20056;-88
2023/05/22 12:13:36;;;;;;;11.20;7.93;;;25.10;99.90;;;;;;5052002;28;20048;-83
2023/05/22 12:16:22;;;;;;;12.43;8.18;;;25.20;99.90;;;;;;5069322;28;20033;-85
2023/05/22 12:18:54;;;;;;;8.82;7.53;;;25.20;99.90;;;;;;5055142;28;20025;-84
2023/05/22 12:21:21;;;;;;;11.20;8.27;;;25.40;99.90;;;;;;5060618;28;20021;-84
2023/05/22 12:23:51;;;;;;;10.82;8.10;;;25.50;99.90;;;;;;5070424;28;20029;-83
2023/05/22 12:26:17;;;;;;;12.63;8.43;;;25.60;99.90;;;;;;5071280;28;20037;-84
2023/05/22 12:28:43;;;;;;;9.80;7.43;;;25.80;99.90;;;;;;5070219;28;20116;-85
2023/05/22 12:31:08;;;;;;;11.35;6.65;;;25.80;99.30;;;;;;5054468;28;20055;-83
2023/05/22 12:33:34;;;;;;;10.48;6.85;;;25.90;97.80;;;;;;5073425;28;20083;-84
2023/05/22 12:36:05;;;;;;;12.43;7.03;;;26.10;98.40;;;;;;5073883;28;20124;-88
2023/05/22 12:38:31;;;;;;;;;;;26.10;99.90;;;;;;5054144;28;20032;-87
2023/05/22 12:40:57;;;;;;;10.48;7.55;;;26.00;99.80;;;;;;5054620;28;19900;-87
2023/05/22 12:43:25;;;;;;;9.70;7.05;;;26.00;99.60;;;;;;5073007;28;20321;-88